Time;durP1;ratioP1;P1;durP2;ratioP2;P2;SDS_P1;SDS_P2;PMS_P1;PMS_P2;Temp;Humidity;BMP_temperature;BMP_pressure;BME280_temperature;BME280_humidity;BME280_pressure;Samples;Min_cycle;Max_cycle;Signal;HPM_P1;HPM_P2
2023/12/30 00:02:10;;;;;;;3.13;0.77;;;7.10;99.90;;;;;;5079308;28;20283;-48
2023/12/30 00:04:37;;;;;;;4.73;1.20;;;7.10;99.90;;;;;;5070859;28;20220;-49
2023/12/30 00:07:04;;;;;;;2.40;0.70;;;7.10;99.90;;;;;;5070180;28;20246;-47
2023/12/30 00:09:30;;;;;;;6.37;1.27;;;7.10;99.90;;;;;;5048154;28;20615;-47
2023/12/30 00:11:59;;;;;;;3.70;0.90;;;7.10;99.90;;;;;;5072364;28;20280;-47
2023/12/30 00:14:26;;;;;;;8.83;0.83;;;7.10;99.90;;;;;;5072117;28;20936;-48
2023/12/30 00:16:52;;;;;;;4.40;1.10;;;7.10;99.90;;;;;;5072528;28;20203;-50
2023/12/30 00:19:20;;;;;;;3.27;0.80;;;7.10;99.90;;;;;;5076688;28;20212;-51
2023/12/30 00:21:46;;;;;;;8.00;1.20;;;7.10;99.90;;;;;;5077741;28;20203;-52
2023/12/30 00:24:13;;;;;;;5.97;1.07;;;7.10;99.90;;;;;;5078461;28;20250;-50
2023/12/30 00:26:40;;;;;;;3.83;0.90;;;7.10;99.90;;;;;;5037408;28;20205;-47
2023/12/30 00:29:12;;;;;;;4.57;0.90;;;7.10;99.90;;;;;;5077713;28;20590;-51
2023/12/30 00:31:39;;;;;;;3.30;0.60;;;7.10;99.90;;;;;;5073533;28;20223;-50
2023/12/30 00:34:06;;;;;;;1.90;0.90;;;7.10;99.90;;;;;;5080557;28;20199;-54
2023/12/30 00:36:33;;;;;;;6.10;1.00;;;7.10;99.90;;;;;;5064445;28;20251;-49
2023/12/30 00:38:59;;;;;;;2.73;0.73;;;7.10;99.90;;;;;;5068601;28;20200;-48
2023/12/30 00:41:27;;;;;;;2.67;0.80;;;7.10;99.90;;;;;;5043560;28;20354;-50
2023/12/30 00:43:54;;;;;;;2.23;0.70;;;7.10;99.90;;;;;;5089561;28;20199;-49
2023/12/30 00:46:22;;;;;;;2.40;0.67;;;7.10;99.90;;;;;;5070604;28;20209;-46
2023/12/30 00:48:50;;;;;;;1.03;0.53;;;7.10;99.90;;;;;;5069095;28;20731;-52
2023/12/30 00:51:17;;;;;;;4.67;0.93;;;7.10;99.90;;;;;;5070914;28;20210;-46
2023/12/30 00:53:44;;;;;;;2.70;1.10;;;7.10;99.90;;;;;;5079259;28;20704;-49
2023/12/30 00:56:10;;;;;;;5.73;0.70;;;7.00;99.90;;;;;;5080791;28;20197;-54
2023/12/30 00:58:37;;;;;;;4.53;0.60;;;7.00;99.90;;;;;;5041239;28;20190;-53
2023/12/30 01:01:04;;;;;;;3.27;0.90;;;7.00;99.90;;;;;;5074579;28;20647;-50
2023/12/30 01:03:32;;;;;;;3.97;1.50;;;6.90;99.90;;;;;;5069355;28;20209;-48
2023/12/30 01:06:00;;;;;;;1.87;0.80;;;6.90;99.90;;;;;;5073318;28;20195;-48
2023/12/30 01:08:27;;;;;;;3.43;1.27;;;6.80;99.90;;;;;;5068445;28;20202;-48
2023/12/30 01:10:53;;;;;;;4.07;1.63;;;6.80;99.90;;;;;;5071350;28;20653;-49
2023/12/30 01:13:20;;;;;;;2.83;1.43;;;6.70;99.90;;;;;;5047323;28;20586;-51
2023/12/30 01:15:47;;;;;;;2.03;1.00;;;6.70;99.90;;;;;;5078696;28;20205;-53
2023/12/30 01:18:14;;;;;;;2.63;0.90;;;6.60;99.90;;;;;;5076210;28;20194;-52
2023/12/30 01:20:42;;;;;;;2.70;1.00;;;6.60;99.90;;;;;;5076189;28;20235;-49
2023/12/30 01:23:09;;;;;;;2.57;0.60;;;6.50;99.90;;;;;;5075876;28;20955;-50
2023/12/30 01:25:38;;;;;;;2.87;0.73;;;6.50;99.90;;;;;;5069357;28;20185;-49
2023/12/30 01:28:05;;;;;;;0.90;0.50;;;6.40;99.90;;;;;;5071540;28;20284;-52
2023/12/30 01:30:35;;;;;;;1.70;0.53;;;6.40;99.90;;;;;;5039676;28;20202;-48
2023/12/30 01:33:02;;;;;;;2.23;0.67;;;6.40;99.90;;;;;;5073579;28;20234;-51
2023/12/30 01:35:31;;;;;;;2.93;1.13;;;6.40;99.90;;;;;;5066293;28;20323;-50
2023/12/30 01:37:59;;;;;;;1.17;0.50;;;6.30;99.90;;;;;;5073446;28;20866;-52
2023/12/30 01:40:27;;;;;;;4.90;0.80;;;6.30;99.90;;;;;;5067036;28;20191;-50
2023/12/30 01:42:53;;;;;;;1.33;0.57;;;6.30;99.90;;;;;;5066318;28;20608;-52
2023/12/30 01:45:20;;;;;;;2.70;0.60;;;6.30;99.90;;;;;;5050562;28;20236;-50
2023/12/30 01:47:47;;;;;;;1.37;0.63;;;6.30;99.90;;;;;;5084989;28;20200;-47
2023/12/30 01:50:14;;;;;;;0.50;0.37;;;6.30;99.90;;;;;;5072914;28;20248;-49
2023/12/30 01:52:41;;;;;;;1.27;0.60;;;6.30;99.90;;;;;;5076810;28;20250;-48
2023/12/30 01:55:10;;;;;;;2.83;0.63;;;6.30;99.90;;;;;;5077230;28;20198;-50
2023/12/30 01:57:37;;;;;;;2.03;0.50;;;6.20;99.90;;;;;;5078215;28;20301;-50
2023/12/30 02:00:06;;;;;;;0.40;0.30;;;6.20;99.90;;;;;;5080201;28;20624;-52
2023/12/30 02:02:38;;;;;;;0.33;0.33;;;6.20;99.90;;;;;;5050879;28;20255;-51
2023/12/30 02:05:06;;;;;;;2.50;0.93;;;6.10;99.90;;;;;;5073367;28;20207;-47
2023/12/30 02:07:33;;;;;;;1.40;0.50;;;6.10;99.90;;;;;;5072546;28;20205;-50
2023/12/30 02:10:00;;;;;;;0.83;0.50;;;6.10;99.90;;;;;;5087550;28;20205;-48
2023/12/30 02:12:28;;;;;;;2.17;0.40;;;6.10;99.90;;;;;;5080919;28;20320;-51
2023/12/30 02:14:55;;;;;;;4.83;0.70;;;6.10;99.90;;;;;;5079807;28;20603;-53
2023/12/30 02:17:22;;;;;;;2.00;0.60;;;6.10;99.90;;;;;;5055039;28;20664;-51
2023/12/30 02:19:49;;;;;;;2.73;0.60;;;6.10;99.90;;;;;;5089073;28;20305;-48
2023/12/30 02:22:16;;;;;;;3.03;0.80;;;6.20;99.90;;;;;;5079526;28;20216;-50
2023/12/30 02:24:44;;;;;;;3.43;0.70;;;6.20;99.90;;;;;;5084231;28;20259;-49
2023/12/30 02:27:11;;;;;;;2.13;0.60;;;6.20;99.90;;;;;;5082711;28;20242;-53
2023/12/30 02:29:38;;;;;;;2.70;0.70;;;6.20;99.90;;;;;;5080701;28;20190;-52
2023/12/30 02:32:05;;;;;;;3.20;0.50;;;6.20;99.90;;;;;;5084489;28;20637;-53
2023/12/30 02:34:32;;;;;;;1.17;0.57;;;6.20;99.90;;;;;;5049481;28;20413;-50
2023/12/30 02:37:00;;;;;;;0.97;0.70;;;6.20;99.90;;;;;;5074162;28;20208;-50
2023/12/30 02:39:26;;;;;;;3.33;0.77;;;6.20;99.90;;;;;;5072047;28;20190;-49
2023/12/30 02:41:54;;;;;;;0.73;0.50;;;6.20;99.90;;;;;;5088514;28;20620;-49
2023/12/30 02:44:21;;;;;;;2.80;0.90;;;6.20;99.90;;;;;;5078456;28;20248;-54
2023/12/30 02:46:48;;;;;;;3.10;0.60;;;6.20;99.90;;;;;;5086570;28;20202;-49
2023/12/30 02:49:15;;;;;;;2.87;0.80;;;6.20;99.90;;;;;;5060125;28;20263;-51
2023/12/30 02:51:42;;;;;;;5.17;0.50;;;6.20;99.90;;;;;;5068514;28;20915;-52
2023/12/30 02:54:09;;;;;;;2.90;0.53;;;6.10;99.90;;;;;;5075623;28;20194;-51
2023/12/30 02:56:36;;;;;;;2.67;0.47;;;6.10;99.90;;;;;;5073691;28;20247;-54
2023/12/30 02:59:04;;;;;;;2.53;0.77;;;6.10;99.90;;;;;;5076638;28;20225;-50
2023/12/30 03:01:32;;;;;;;6.40;1.00;;;6.10;99.90;;;;;;5068897;28;20905;-52
2023/12/30 03:04:00;;;;;;;5.23;0.67;;;6.10;99.90;;;;;;5078857;28;20215;-50
2023/12/30 03:06:28;;;;;;;2.83;0.70;;;6.10;99.90;;;;;;5053801;28;20208;-51
2023/12/30 03:08:55;;;;;;;2.60;0.63;;;6.10;99.90;;;;;;5081761;28;20552;-50
2023/12/30 03:11:23;;;;;;;3.37;0.57;;;6.10;99.90;;;;;;5072422;28;20217;-52
2023/12/30 03:13:50;;;;;;;3.17;0.70;;;6.10;99.90;;;;;;5072551;28;20222;-52
2023/12/30 03:16:18;;;;;;;3.17;0.77;;;6.00;99.90;;;;;;5073765;28;20201;-51
2023/12/30 03:18:46;;;;;;;5.23;0.77;;;6.00;99.90;;;;;;5082857;28;20195;-53
2023/12/30 03:21:18;;;;;;;2.07;0.63;;;6.00;99.90;;;;;;5068879;28;20215;-52
2023/12/30 03:23:45;;;;;;;5.63;0.93;;;6.00;99.90;;;;;;5078920;28;20275;-51
2023/12/30 03:26:12;;;;;;;4.10;0.90;;;6.00;99.90;;;;;;5081155;28;20194;-48
2023/12/30 03:28:38;;;;;;;2.73;0.63;;;6.00;99.90;;;;;;5080604;28;20194;-50
2023/12/30 03:31:06;;;;;;;4.97;0.50;;;6.00;99.90;;;;;;5083660;28;20670;-49
2023/12/30 03:33:34;;;;;;;5.30;0.80;;;6.00;99.90;;;;;;5081746;28;20236;-48
2023/12/30 03:36:01;;;;;;;6.13;1.00;;;6.00;99.90;;;;;;5086795;28;20814;-53
2023/12/30 03:38:28;;;;;;;2.47;0.57;;;6.00;99.90;;;;;;5043142;28;20198;-52
2023/12/30 03:40:57;;;;;;;3.10;0.50;;;6.00;99.90;;;;;;5080317;28;20194;-53
2023/12/30 03:43:23;;;;;;;5.83;1.00;;;6.00;99.90;;;;;;5076083;28;20214;-50
2023/12/30 03:45:50;;;;;;;4.53;0.77;;;6.00;99.90;;;;;;5083116;28;20186;-48
2023/12/30 03:48:17;;;;;;;6.30;0.97;;;6.00;99.90;;;;;;5080987;28;20210;-51
2023/12/30 03:50:45;;;;;;;2.50;0.63;;;6.00;99.90;;;;;;5077338;28;20927;-54
2023/12/30 03:53:12;;;;;;;4.13;0.70;;;6.00;99.90;;;;;;5048781;28;20278;-50
2023/12/30 03:55:39;;;;;;;5.57;0.80;;;6.00;99.90;;;;;;5078620;28;20353;-49
2023/12/30 03:58:06;;;;;;;5.27;0.80;;;6.00;99.90;;;;;;5083138;28;20194;-52
2023/12/30 04:00:33;;;;;;;10.43;0.93;;;6.00;99.90;;;;;;5077244;28;20193;-54
2023/12/30 04:02:59;;;;;;;7.97;1.20;;;6.00;99.90;;;;;;5071055;28;20214;-49
2023/12/30 04:05:26;;;;;;;5.70;0.93;;;6.00;99.90;;;;;;5071806;28;20189;-49
2023/12/30 04:07:55;;;;;;;6.83;1.13;;;6.00;99.90;;;;;;5050501;28;20206;-52
2023/12/30 04:10:22;;;;;;;4.50;0.80;;;6.10;99.90;;;;;;5076405;28;20615;-50
2023/12/30 04:12:49;;;;;;;8.00;1.50;;;6.20;99.90;;;;;;5077378;28;20283;-49
2023/12/30 04:15:16;;;;;;;5.33;0.90;;;6.20;99.90;;;;;;5075239;28;20193;-51
2023/12/30 04:17:43;;;;;;;2.73;1.00;;;6.20;99.90;;;;;;5079398;28;20196;-52
2023/12/30 04:20:10;;;;;;;4.50;0.80;;;6.20;99.90;;;;;;5079825;28;20520;-49
2023/12/30 04:22:37;;;;;;;2.00;0.57;;;6.20;99.90;;;;;;5080832;28;20232;-50
2023/12/30 04:25:07;;;;;;;1.90;0.50;;;6.10;99.90;;;;;;5049237;28;20206;-51
2023/12/30 04:27:34;;;;;;;3.50;0.70;;;6.00;99.90;;;;;;5069920;28;20275;-49
2023/12/30 04:30:01;;;;;;;2.83;1.03;;;5.90;99.90;;;;;;5079544;28;20656;-51
2023/12/30 04:32:28;;;;;;;3.90;1.10;;;5.90;99.90;;;;;;5075595;28;20202;-52
2023/12/30 04:34:55;;;;;;;3.20;0.70;;;5.80;99.90;;;;;;5078399;28;20692;-51
2023/12/30 04:37:22;;;;;;;3.03;0.57;;;5.80;99.90;;;;;;5073236;28;20655;-53
2023/12/30 04:39:49;;;;;;;5.53;1.07;;;5.80;99.90;;;;;;5049847;28;20205;-53
2023/12/30 04:42:17;;;;;;;6.30;1.10;;;5.80;99.90;;;;;;5082165;28;20205;-52
2023/12/30 04:44:45;;;;;;;4.73;0.90;;;5.70;99.90;;;;;;5083529;28;20761;-49
2023/12/30 04:47:12;;;;;;;2.87;1.00;;;5.70;99.90;;;;;;5081281;28;20209;-52
2023/12/30 04:49:39;;;;;;;3.37;1.20;;;5.70;99.90;;;;;;5073898;28;20195;-51
2023/12/30 04:52:06;;;;;;;7.97;1.00;;;5.70;99.90;;;;;;5082765;28;20761;-51
2023/12/30 04:54:33;;;;;;;6.67;0.90;;;5.70;99.90;;;;;;5044090;28;20198;-50
2023/12/30 04:57:00;;;;;;;5.90;1.00;;;5.80;99.90;;;;;;5074573;28;20199;-51
2023/12/30 04:59:28;;;;;;;6.73;0.90;;;5.70;99.90;;;;;;5072305;28;20186;-51
2023/12/30 05:01:55;;;;;;;4.07;0.90;;;5.70;99.90;;;;;;5067215;28;20765;-51
2023/12/30 05:04:22;;;;;;;3.63;1.00;;;5.70;99.90;;;;;;5073619;28;20189;-52
2023/12/30 05:06:51;;;;;;;3.43;1.00;;;5.70;99.90;;;;;;5081365;28;20216;-48
2023/12/30 05:09:19;;;;;;;5.73;1.57;;;5.70;99.90;;;;;;5055957;28;20198;-52
2023/12/30 05:11:48;;;;;;;6.87;1.13;;;5.70;99.90;;;;;;5076836;28;20680;-51
2023/12/30 05:14:15;;;;;;;7.20;1.00;;;5.70;99.90;;;;;;5074674;28;20811;-52
2023/12/30 05:16:45;;;;;;;5.23;1.77;;;5.70;99.90;;;;;;5082782;28;20190;-51
2023/12/30 05:19:12;;;;;;;5.17;1.10;;;5.70;99.90;;;;;;5082707;28;20726;-53
2023/12/30 05:21:39;;;;;;;3.33;0.90;;;5.70;99.90;;;;;;5081245;28;20243;-49
2023/12/30 05:24:07;;;;;;;3.97;0.83;;;5.70;99.90;;;;;;5076273;28;20227;-51
2023/12/30 05:26:34;;;;;;;4.90;1.53;;;5.70;99.90;;;;;;5056994;28;20202;-49
2023/12/30 05:29:00;;;;;;;2.97;1.00;;;5.80;99.90;;;;;;5079551;28;20203;-50
2023/12/30 05:31:27;;;;;;;7.87;1.20;;;5.80;99.90;;;;;;5076262;28;20295;-51
2023/12/30 05:33:56;;;;;;;5.57;1.17;;;5.80;99.90;;;;;;5082754;28;20271;-48
2023/12/30 05:36:22;;;;;;;7.33;1.30;;;5.80;99.90;;;;;;5079303;28;20198;-50
2023/12/30 05:38:49;;;;;;;6.43;1.30;;;5.90;99.90;;;;;;5079298;28;20202;-52
2023/12/30 05:41:16;;;;;;;7.07;1.17;;;5.80;99.90;;;;;;5055782;28;20236;-53
2023/12/30 05:43:43;;;;;;;6.70;1.07;;;5.90;99.90;;;;;;5084475;28;20213;-53
2023/12/30 05:46:15;;;;;;;7.80;1.00;;;5.90;99.90;;;;;;5084207;28;20198;-53
2023/12/30 05:48:42;;;;;;;3.17;1.00;;;5.90;99.90;;;;;;5076544;28;20186;-50
2023/12/30 05:51:10;;;;;;;4.17;1.57;;;5.90;99.90;;;;;;5074687;28;20220;-50
2023/12/30 05:53:37;;;;;;;6.63;1.50;;;5.90;99.90;;;;;;5079112;28;20214;-53
2023/12/30 05:56:05;;;;;;;4.60;1.30;;;5.90;99.90;;;;;;5054166;28;20197;-52
2023/12/30 05:58:34;;;;;;;7.27;1.30;;;5.90;99.90;;;;;;5078624;28;20295;-52
2023/12/30 06:01:01;;;;;;;4.93;1.10;;;5.90;99.90;;;;;;5070237;28;20205;-53
2023/12/30 06:03:28;;;;;;;6.87;1.37;;;5.90;99.90;;;;;;5084512;28;20206;-52
2023/12/30 06:05:55;;;;;;;9.77;1.37;;;5.90;99.90;;;;;;5079256;28;20212;-53
2023/12/30 06:08:23;;;;;;;6.60;1.60;;;5.90;99.90;;;;;;5082192;28;20201;-53
2023/12/30 06:10:53;;;;;;;3.50;1.10;;;5.90;99.90;;;;;;5054108;28;20872;-51
2023/12/30 06:13:20;;;;;;;4.93;1.03;;;5.90;99.90;;;;;;5076405;28;20589;-49
2023/12/30 06:15:49;;;;;;;3.13;1.20;;;5.90;99.90;;;;;;5081586;28;20236;-54
2023/12/30 06:18:16;;;;;;;4.03;1.20;;;5.90;99.90;;;;;;5079088;28;20300;-53
2023/12/30 06:20:45;;;;;;;4.10;0.80;;;5.90;99.90;;;;;;5068537;28;20276;-50
2023/12/30 06:23:12;;;;;;;4.20;0.90;;;5.90;99.90;;;;;;5069597;28;20218;-48
2023/12/30 06:25:40;;;;;;;5.93;1.13;;;5.90;99.90;;;;;;5061457;28;20194;-48
2023/12/30 06:28:07;;;;;;;6.10;1.13;;;5.90;99.90;;;;;;5049620;28;20627;-53
2023/12/30 06:30:34;;;;;;;6.83;0.93;;;5.90;99.90;;;;;;5075397;28;20303;-51
2023/12/30 06:33:06;;;;;;;4.67;1.00;;;5.90;99.90;;;;;;5075837;28;20272;-52
2023/12/30 06:35:33;;;;;;;4.03;1.60;;;5.90;99.90;;;;;;5069539;28;21231;-50
2023/12/30 06:38:00;;;;;;;11.03;1.60;;;5.90;99.90;;;;;;5079279;28;20197;-48
2023/12/30 06:40:27;;;;;;;5.63;1.20;;;5.90;99.90;;;;;;5066565;28;20259;-47
2023/12/30 06:42:55;;;;;;;5.63;1.20;;;5.90;99.90;;;;;;5048583;28;20726;-52
2023/12/30 06:45:22;;;;;;;4.43;1.10;;;5.90;99.90;;;;;;5076115;28;20190;-51
2023/12/30 06:47:49;;;;;;;8.27;1.33;;;5.90;99.90;;;;;;5074683;28;20248;-47
2023/12/30 06:50:16;;;;;;;10.47;1.40;;;5.90;99.90;;;;;;5069700;28;20196;-53
2023/12/30 06:52:43;;;;;;;10.13;1.50;;;6.00;99.90;;;;;;5067432;28;20347;-48
2023/12/30 06:55:12;;;;;;;8.93;1.80;;;6.00;99.90;;;;;;5065423;28;20206;-51
2023/12/30 06:57:38;;;;;;;3.60;0.93;;;6.00;99.90;;;;;;5048079;28;20205;-49
2023/12/30 07:00:08;;;;;;;4.50;1.03;;;6.00;99.90;;;;;;5074893;28;20206;-49
2023/12/30 07:02:35;;;;;;;7.67;1.40;;;6.00;99.90;;;;;;5075353;28;20251;-48
2023/12/30 07:05:02;;;;;;;5.07;1.20;;;6.00;99.90;;;;;;5072325;28;20547;-53
2023/12/30 07:07:29;;;;;;;6.63;1.97;;;6.00;99.90;;;;;;5074831;28;20206;-49
2023/12/30 07:09:56;;;;;;;8.80;1.53;;;6.00;99.90;;;;;;5075665;28;20197;-52
2023/12/30 07:12:22;;;;;;;8.40;1.30;;;6.00;99.90;;;;;;4973590;28;1909806;-49
2023/12/30 07:14:49;;;;;;;4.27;1.10;;;6.00;99.90;;;;;;5072101;28;20210;-54
2023/12/30 07:17:18;;;;;;;4.53;1.17;;;6.00;99.90;;;;;;5076747;28;20194;-50
2023/12/30 07:19:44;;;;;;;9.67;1.17;;;6.00;99.90;;;;;;5080624;28;20199;-52
2023/12/30 07:22:12;;;;;;;4.80;1.23;;;6.00;99.90;;;;;;5069004;28;20276;-50
2023/12/30 07:24:39;;;;;;;8.63;1.23;;;6.00;99.90;;;;;;5069702;28;20191;-50
2023/12/30 07:27:06;;;;;;;6.10;0.97;;;6.00;99.90;;;;;;5061929;28;20201;-52
2023/12/30 07:29:33;;;;;;;7.13;1.60;;;6.00;99.90;;;;;;5052554;28;20206;-54
2023/12/30 07:32:00;;;;;;;4.23;1.10;;;6.00;99.90;;;;;;5072188;28;20225;-54
2023/12/30 07:34:28;;;;;;;4.47;1.10;;;5.90;99.90;;;;;;5081340;28;20213;-53
2023/12/30 07:36:56;;;;;;;2.43;0.73;;;5.90;99.90;;;;;;5068415;28;20195;-48
2023/12/30 07:39:23;;;;;;;3.93;0.87;;;5.90;99.90;;;;;;5073349;28;20189;-51
2023/12/30 07:41:50;;;;;;;5.37;0.87;;;5.80;99.90;;;;;;5070393;28;21026;-50
2023/12/30 07:44:17;;;;;;;3.53;0.80;;;5.80;99.90;;;;;;5048383;28;20283;-50
2023/12/30 07:46:44;;;;;;;4.57;0.90;;;5.80;99.90;;;;;;5079706;28;20957;-50
2023/12/30 07:49:11;;;;;;;2.70;0.70;;;5.80;99.90;;;;;;5064781;28;20190;-48
2023/12/30 07:51:39;;;;;;;3.30;0.80;;;5.70;99.90;;;;;;5075398;28;20201;-48
2023/12/30 07:54:06;;;;;;;3.77;0.90;;;5.80;99.90;;;;;;5066006;28;20221;-51
2023/12/30 07:56:33;;;;;;;6.37;1.30;;;5.80;99.90;;;;;;5075524;28;20262;-50
2023/12/30 07:59:00;;;;;;;4.90;1.10;;;5.80;99.90;;;;;;5051845;28;21785;-48
2023/12/30 08:01:27;;;;;;;4.33;0.93;;;5.80;99.90;;;;;;5075957;28;20213;-51
2023/12/30 08:03:53;;;;;;;9.67;1.40;;;5.80;99.90;;;;;;5065283;28;20280;-49
2023/12/30 08:06:20;;;;;;;7.77;1.67;;;5.90;99.90;;;;;;5080326;28;20550;-51
2023/12/30 08:08:48;;;;;;;4.60;1.30;;;5.90;99.90;;;;;;5072904;28;20950;-49
2023/12/30 08:11:15;;;;;;;7.70;1.30;;;5.90;99.90;;;;;;5081687;28;20221;-50
2023/12/30 08:13:42;;;;;;;5.67;1.50;;;5.90;99.90;;;;;;5072797;28;20214;-52
2023/12/30 08:16:09;;;;;;;7.97;2.13;;;5.90;99.90;;;;;;5060201;28;20226;-50
2023/12/30 08:18:36;;;;;;;6.27;2.83;;;5.90;99.90;;;;;;5074720;28;20198;-50
2023/12/30 08:21:03;;;;;;;8.33;1.60;;;6.00;99.90;;;;;;5071138;28;20869;-49
2023/12/30 08:23:30;;;;;;;7.73;1.50;;;6.00;99.90;;;;;;5077696;28;20266;-51
2023/12/30 08:25:58;;;;;;;3.10;1.00;;;6.00;99.90;;;;;;5064131;28;20199;-53
2023/12/30 08:28:25;;;;;;;2.17;0.60;;;6.00;99.90;;;;;;5083165;28;20820;-52
2023/12/30 08:30:54;;;;;;;1.43;0.50;;;5.80;99.90;;;;;;5051045;28;20201;-49
2023/12/30 08:33:21;;;;;;;0.73;0.50;;;5.50;99.90;;;;;;5074488;28;20222;-52
2023/12/30 08:35:48;;;;;;;1.77;0.40;;;5.30;99.90;;;;;;5064235;28;20221;-50
2023/12/30 08:38:16;;;;;;;1.47;0.50;;;5.20;99.90;;;;;;5078235;28;20193;-54
2023/12/30 08:40:43;;;;;;;1.80;0.30;;;5.20;99.90;;;;;;5072629;28;20210;-50
2023/12/30 08:43:12;;;;;;;0.97;0.50;;;5.10;99.90;;;;;;5078507;28;20287;-50
2023/12/30 08:45:39;;;;;;;0.90;0.40;;;5.10;99.90;;;;;;5054714;28;20305;-49
2023/12/30 08:48:06;;;;;;;0.60;0.27;;;5.10;99.90;;;;;;5067643;28;20198;-49
2023/12/30 08:50:33;;;;;;;3.70;0.30;;;5.10;99.90;;;;;;5081209;28;20205;-52
2023/12/30 08:53:00;;;;;;;2.87;0.40;;;5.10;99.90;;;;;;5078318;28;20210;-49
2023/12/30 08:55:27;;;;;;;0.30;0.30;;;5.10;99.90;;;;;;5075277;28;20284;-49
2023/12/30 08:57:53;;;;;;;1.20;0.20;;;5.10;99.90;;;;;;5090828;28;20259;-49
2023/12/30 09:00:22;;;;;;;0.67;0.30;;;5.20;99.90;;;;;;5066228;28;21024;-50
2023/12/30 09:02:49;;;;;;;2.83;0.50;;;5.10;99.90;;;;;;5050377;28;20237;-49
2023/12/30 09:05:18;;;;;;;2.13;0.40;;;5.20;99.90;;;;;;5061909;28;20286;-49
2023/12/30 09:07:45;;;;;;;1.60;0.77;;;5.10;99.90;;;;;;5082161;28;20633;-49
2023/12/30 09:10:12;;;;;;;1.47;0.20;;;5.20;99.90;;;;;;5071635;28;20205;-52
2023/12/30 09:12:39;;;;;;;1.30;0.60;;;5.20;99.90;;;;;;5074517;28;20266;-49
2023/12/30 09:15:06;;;;;;;0.80;0.37;;;5.30;99.90;;;;;;5076142;28;20680;-47
2023/12/30 09:17:35;;;;;;;3.40;0.30;;;5.30;99.90;;;;;;5044176;28;20201;-49
2023/12/30 09:20:01;;;;;;;1.67;0.43;;;5.20;99.90;;;;;;5075283;28;20208;-51
2023/12/30 09:22:28;;;;;;;1.83;0.40;;;5.10;99.90;;;;;;5081578;28;20501;-51
2023/12/30 09:24:55;;;;;;;1.07;0.40;;;5.00;99.90;;;;;;5072028;28;20620;-52
2023/12/30 09:27:23;;;;;;;2.83;0.57;;;5.00;99.90;;;;;;5071085;28;20290;-53
2023/12/30 09:29:50;;;;;;;3.90;0.80;;;5.00;99.90;;;;;;5074353;28;20664;-52
2023/12/30 09:32:17;;;;;;;2.07;0.67;;;5.00;99.90;;;;;;5043667;28;20223;-51
2023/12/30 09:34:45;;;;;;;1.03;0.50;;;5.00;99.90;;;;;;5068192;28;20225;-50
2023/12/30 09:37:12;;;;;;;2.97;0.33;;;5.00;99.90;;;;;;5055781;28;20255;-51
2023/12/30 09:39:39;;;;;;;1.93;0.40;;;5.00;99.90;;;;;;5070261;28;20264;-48
2023/12/30 09:42:06;;;;;;;2.17;0.40;;;5.10;99.90;;;;;;5071869;28;20271;-52
2023/12/30 09:44:35;;;;;;;2.10;0.40;;;5.10;99.90;;;;;;5067063;28;20697;-52
2023/12/30 09:47:07;;;;;;;0.90;0.40;;;5.10;99.90;;;;;;5073247;28;20209;-49
2023/12/30 09:49:35;;;;;;;1.47;0.50;;;5.10;99.90;;;;;;5027849;28;20237;-51
2023/12/30 09:52:06;;;;;;;1.13;0.50;;;5.10;99.90;;;;;;5072283;28;20224;-48
2023/12/30 09:54:33;;;;;;;3.40;0.63;;;5.10;99.90;;;;;;5068909;28;20217;-52
2023/12/30 09:57:02;;;;;;;2.17;0.50;;;5.20;99.90;;;;;;5071402;28;20672;-54
2023/12/30 09:59:30;;;;;;;3.47;0.83;;;5.20;99.90;;;;;;5068451;28;20207;-51
2023/12/30 10:01:57;;;;;;;3.50;0.53;;;5.20;99.90;;;;;;5068801;28;20230;-48
2023/12/30 10:04:24;;;;;;;2.23;0.70;;;5.20;99.90;;;;;;5052332;28;20190;-50
2023/12/30 10:06:52;;;;;;;2.63;0.43;;;5.30;99.90;;;;;;5076423;28;20263;-49
2023/12/30 10:09:22;;;;;;;5.43;0.80;;;5.30;99.90;;;;;;5074375;28;20243;-55
2023/12/30 10:11:49;;;;;;;3.57;0.73;;;5.30;99.90;;;;;;5071241;28;20217;-50
2023/12/30 10:14:16;;;;;;;2.93;1.03;;;5.30;99.90;;;;;;5076562;28;20214;-49
2023/12/30 10:16:43;;;;;;;4.13;1.10;;;5.30;99.90;;;;;;5075120;28;20182;-52
2023/12/30 10:19:10;;;;;;;4.03;0.90;;;5.40;99.90;;;;;;5080867;28;20259;-52
2023/12/30 10:21:38;;;;;;;2.80;0.70;;;5.40;99.90;;;;;;5045978;28;20327;-51
2023/12/30 10:24:05;;;;;;;3.93;1.00;;;5.40;99.90;;;;;;5073185;28;20912;-53
2023/12/30 10:26:37;;;;;;;4.50;0.97;;;5.40;99.90;;;;;;5080736;28;20211;-51
2023/12/30 10:29:04;;;;;;;5.20;0.83;;;5.40;99.90;;;;;;5074896;28;20306;-52
2023/12/30 10:31:31;;;;;;;4.63;1.10;;;5.50;99.90;;;;;;5079925;28;20210;-50
2023/12/30 10:33:58;;;;;;;5.60;0.87;;;5.50;99.90;;;;;;5070848;28;20194;-51
2023/12/30 10:36:28;;;;;;;4.63;1.30;;;5.50;99.90;;;;;;5047720;28;20573;-51
2023/12/30 10:38:55;;;;;;;6.10;1.00;;;5.50;99.90;;;;;;5085231;28;20664;-51
2023/12/30 10:41:22;;;;;;;3.87;1.07;;;5.60;99.90;;;;;;5072982;28;20232;-50
2023/12/30 10:43:51;;;;;;;4.00;0.97;;;5.60;99.90;;;;;;5074980;28;20251;-53
2023/12/30 10:46:20;;;;;;;4.20;1.23;;;5.60;99.90;;;;;;5078832;28;20244;-52
2023/12/30 10:48:52;;;;;;;2.10;0.63;;;5.60;99.90;;;;;;5074428;28;20198;-50
2023/12/30 10:51:24;;;;;;;3.57;1.07;;;5.60;99.90;;;;;;5052325;28;20209;-52
2023/12/30 10:54:02;;;;;;;3.03;0.90;;;5.60;99.90;;;;;;5078327;28;20209;-50
2023/12/30 10:56:31;;;;;;;3.00;0.87;;;5.60;99.90;;;;;;5079820;28;20199;-49
2023/12/30 10:59:02;;;;;;;2.90;0.60;;;5.60;99.90;;;;;;5070527;28;20197;-53
2023/12/30 11:01:30;;;;;;;5.03;1.00;;;5.60;99.90;;;;;;5077564;28;20201;-48
2023/12/30 11:03:58;;;;;;;3.30;0.80;;;5.60;99.90;;;;;;5070017;28;20199;-51
2023/12/30 11:06:30;;;;;;;3.00;0.60;;;5.60;99.90;;;;;;5054285;28;20206;-50
2023/12/30 11:09:00;;;;;;;2.57;0.77;;;5.60;99.90;;;;;;5061663;28;20260;-52
2023/12/30 11:11:27;;;;;;;0.40;0.40;;;5.60;99.90;;;;;;5073729;28;20190;-53
2023/12/30 11:13:57;;;;;;;0.97;0.60;;;5.60;99.90;;;;;;5076735;28;20735;-52
2023/12/30 11:16:26;;;;;;;2.07;0.60;;;5.60;99.90;;;;;;5109729;27;20597;-50
2023/12/30 11:18:55;;;;;;;1.37;0.60;;;5.60;99.90;;;;;;5073565;28;20591;-53
2023/12/30 11:21:37;;;;;;;2.63;0.60;;;5.60;99.90;;;;;;5052039;28;20876;-48
2023/12/30 11:24:06;;;;;;;1.50;0.67;;;5.60;99.90;;;;;;5060087;28;20198;-50
2023/12/30 11:26:35;;;;;;;3.20;0.47;;;5.50;99.90;;;;;;5072985;28;20186;-49
2023/12/30 11:29:03;;;;;;;1.07;0.60;;;5.60;99.90;;;;;;5064702;28;20329;-52
2023/12/30 11:31:36;;;;;;;1.73;0.53;;;5.60;99.90;;;;;;5076922;28;20194;-48
2023/12/30 11:34:04;;;;;;;1.77;0.60;;;5.70;99.90;;;;;;5076375;28;20210;-51
2023/12/30 11:36:31;;;;;;;0.63;0.50;;;5.70;99.90;;;;;;5057012;28;20267;-47
2023/12/30 11:39:00;;;;;;;0.53;0.40;;;5.70;99.90;;;;;;5072807;28;20232;-49
2023/12/30 11:41:29;;;;;;;1.83;0.40;;;5.80;99.90;;;;;;5077360;28;20255;-53
2023/12/30 11:43:57;;;;;;;2.00;0.70;;;5.80;99.90;;;;;;5073198;28;20902;-49
2023/12/30 11:46:24;;;;;;;1.77;0.50;;;5.80;99.90;;;;;;5075735;28;20267;-48
2023/12/30 11:48:52;;;;;;;5.43;1.43;;;5.90;99.90;;;;;;5070119;28;20259;-51
2023/12/30 11:51:22;;;;;;;1.70;0.90;;;5.90;99.90;;;;;;5073026;28;20218;-52
2023/12/30 11:53:49;;;;;;;4.97;1.10;;;6.00;99.90;;;;;;5047340;28;20226;-49
2023/12/30 11:56:19;;;;;;;3.67;1.40;;;6.00;99.90;;;;;;5066440;28;20218;-52
2023/12/30 11:58:47;;;;;;;2.50;1.00;;;6.00;99.90;;;;;;5068662;28;20201;-52
2023/12/30 12:01:14;;;;;;;2.60;1.03;;;6.10;99.90;;;;;;5064589;28;20388;-48
2023/12/30 12:03:41;;;;;;;5.37;1.47;;;6.10;99.90;;;;;;5068665;28;20218;-48
2023/12/30 12:06:10;;;;;;;7.93;1.70;;;6.10;99.90;;;;;;5081660;28;20187;-53
2023/12/30 12:08:38;;;;;;;2.97;1.27;;;6.10;99.90;;;;;;5045386;28;21053;-50
2023/12/30 12:11:06;;;;;;;6.37;1.53;;;6.10;99.90;;;;;;5062782;28;20194;-47
2023/12/30 12:13:33;;;;;;;6.07;1.60;;;6.10;99.90;;;;;;5073862;28;20229;-50
2023/12/30 12:16:00;;;;;;;2.83;1.40;;;6.10;99.90;;;;;;5073769;28;20708;-48
2023/12/30 12:18:27;;;;;;;3.67;0.80;;;6.20;99.90;;;;;;5079050;28;20203;-50
2023/12/30 12:20:54;;;;;;;10.73;1.43;;;6.20;99.90;;;;;;5078615;28;20680;-51
2023/12/30 12:23:25;;;;;;;3.63;1.40;;;6.20;99.90;;;;;;5053916;28;20211;-52
2023/12/30 12:25:52;;;;;;;4.40;1.43;;;6.30;99.90;;;;;;5072136;28;20198;-49
2023/12/30 12:28:20;;;;;;;8.73;1.43;;;6.30;99.90;;;;;;5074803;28;20194;-51
2023/12/30 12:30:47;;;;;;;4.80;1.30;;;6.30;99.90;;;;;;5076731;28;20182;-51
2023/12/30 12:33:15;;;;;;;3.47;1.27;;;6.30;99.90;;;;;;5068797;28;20287;-50
2023/12/30 12:35:41;;;;;;;2.90;1.17;;;6.30;99.90;;;;;;5069496;28;20216;-53
2023/12/30 12:38:08;;;;;;;7.97;1.80;;;6.30;99.90;;;;;;5083482;28;20202;-51
2023/12/30 12:40:38;;;;;;;6.37;1.40;;;6.30;99.90;;;;;;5047252;28;20911;-50
2023/12/30 12:43:04;;;;;;;5.53;1.63;;;6.30;99.90;;;;;;5089418;28;20226;-49
2023/12/30 12:45:31;;;;;;;3.67;1.17;;;6.30;99.90;;;;;;5074658;28;20197;-52
2023/12/30 12:47:59;;;;;;;10.00;2.07;;;6.30;99.90;;;;;;5072207;28;20270;-49
2023/12/30 12:50:26;;;;;;;6.07;1.37;;;6.30;99.90;;;;;;5073794;28;20220;-49
2023/12/30 12:52:53;;;;;;;4.57;1.60;;;6.30;99.90;;;;;;5075637;28;20260;-49
2023/12/30 12:55:20;;;;;;;7.93;1.63;;;6.30;99.90;;;;;;5041441;28;20214;-49
2023/12/30 12:57:48;;;;;;;4.30;1.30;;;6.30;99.90;;;;;;5075587;28;20194;-49
2023/12/30 13:00:18;;;;;;;1.97;0.97;;;6.30;99.90;;;;;;5074076;28;20251;-51